sensor_id;sensor_type;location;lat;lon;timestamp;pressure;altitude;pressure_sealevel;temperature;humidity
41140;BME280;26881;48.784;9.192;2022-07-17T00:00:23;99415.78;;;19.92;46.03
41140;BME280;26881;48.784;9.192;2022-07-17T00:05:45;99426.66;;;19.68;46.72
41140;BME280;26881;48.784;9.192;2022-07-17T00:11:07;99424.56;;;19.72;46.75
41140;BME280;26881;48.784;9.192;2022-07-17T00:16:30;99414.50;;;19.54;47.40
41140;BME280;26881;48.784;9.192;2022-07-17T00:21:52;99413.50;;;19.55;47.32
41140;BME280;26881;48.784;9.192;2022-07-17T00:27:14;99410.50;;;19.28;48.23
41140;BME280;26881;48.784;9.192;2022-07-17T00:32:36;99410.34;;;19.29;48.17
41140;BME280;26881;48.784;9.192;2022-07-17T00:37:57;99403.06;;;19.10;48.59
41140;BME280;26881;48.784;9.192;2022-07-17T00:43:19;99415.53;;;18.87;48.65
41140;BME280;26881;48.784;9.192;2022-07-17T00:48:41;99419.72;;;18.90;49.08
41140;BME280;26881;48.784;9.192;2022-07-17T00:54:03;99418.78;;;19.02;48.36
41140;BME280;26881;48.784;9.192;2022-07-17T00:59:31;99412.38;;;19.05;48.23
41140;BME280;26881;48.784;9.192;2022-07-17T01:04:54;99415.25;;;19.02;48.30
41140;BME280;26881;48.784;9.192;2022-07-17T01:10:17;99412.88;;;18.87;48.97
41140;BME280;26881;48.784;9.192;2022-07-17T01:15:40;99423.72;;;18.95;48.92
41140;BME280;26881;48.784;9.192;2022-07-17T01:21:06;99422.38;;;18.90;49.02
41140;BME280;26881;48.784;9.192;2022-07-17T01:26:28;99423.84;;;18.83;49.37
41140;BME280;26881;48.784;9.192;2022-07-17T01:31:50;99418.44;;;18.84;49.50
41140;BME280;26881;48.784;9.192;2022-07-17T01:37:12;99425.63;;;18.71;50.19
41140;BME280;26881;48.784;9.192;2022-07-17T01:42:34;99432.25;;;18.65;50.78
41140;BME280;26881;48.784;9.192;2022-07-17T01:47:56;99438.88;;;18.60;51.57
41140;BME280;26881;48.784;9.192;2022-07-17T01:53:18;99441.88;;;18.55;51.60
41140;BME280;26881;48.784;9.192;2022-07-17T01:58:40;99442.59;;;18.57;51.79
41140;BME280;26881;48.784;9.192;2022-07-17T02:04:02;99438.50;;;18.53;52.28
41140;BME280;26881;48.784;9.192;2022-07-17T02:09:24;99434.16;;;18.29;52.90
41140;BME280;26881;48.784;9.192;2022-07-17T02:14:46;99430.56;;;18.30;53.19
41140;BME280;26881;48.784;9.192;2022-07-17T02:20:08;99429.31;;;18.12;53.91
41140;BME280;26881;48.784;9.192;2022-07-17T02:25:30;99426.56;;;18.14;53.70
41140;BME280;26881;48.784;9.192;2022-07-17T02:30:53;99420.41;;;18.13;53.76
41140;BME280;26881;48.784;9.192;2022-07-17T02:36:15;99415.63;;;18.18;53.72
41140;BME280;26881;48.784;9.192;2022-07-17T02:41:37;99415.38;;;18.10;53.59
41140;BME280;26881;48.784;9.192;2022-07-17T02:46:58;99412.59;;;18.11;53.67
41140;BME280;26881;48.784;9.192;2022-07-17T02:52:20;99417.00;;;17.88;54.74
41140;BME280;26881;48.784;9.192;2022-07-17T02:57:43;99410.91;;;17.75;55.32
41140;BME280;26881;48.784;9.192;2022-07-17T03:03:05;99409.59;;;17.69;55.50
41140;BME280;26881;48.784;9.192;2022-07-17T03:08:27;99419.81;;;17.74;55.98
41140;BME280;26881;48.784;9.192;2022-07-17T03:13:49;99409.34;;;17.73;55.86
41140;BME280;26881;48.784;9.192;2022-07-17T03:19:11;99402.97;;;17.75;55.85
41140;BME280;26881;48.784;9.192;2022-07-17T03:24:33;99404.50;;;17.66;56.00
41140;BME280;26881;48.784;9.192;2022-07-17T03:29:55;99405.81;;;17.61;56.35
41140;BME280;26881;48.784;9.192;2022-07-17T03:35:17;99403.63;;;17.55;56.52
41140;BME280;26881;48.784;9.192;2022-07-17T03:40:39;99404.34;;;17.57;56.04
41140;BME280;26881;48.784;9.192;2022-07-17T03:46:01;99402.69;;;17.56;56.10
41140;BME280;26881;48.784;9.192;2022-07-17T03:51:24;99410.66;;;17.43;57.24
41140;BME280;26881;48.784;9.192;2022-07-17T03:56:46;99415.78;;;17.33;58.05
41140;BME280;26881;48.784;9.192;2022-07-17T04:02:08;99419.91;;;17.37;58.56
41140;BME280;26881;48.784;9.192;2022-07-17T04:07:30;99424.81;;;17.31;58.84
41140;BME280;26881;48.784;9.192;2022-07-17T04:12:52;99429.84;;;17.10;59.75
41140;BME280;26881;48.784;9.192;2022-07-17T04:18:19;99437.94;;;16.95;60.33
41140;BME280;26881;48.784;9.192;2022-07-17T04:23:42;99432.81;;;17.05;59.80
41140;BME280;26881;48.784;9.192;2022-07-17T04:29:04;99428.19;;;16.96;60.88
41140;BME280;26881;48.784;9.192;2022-07-17T04:34:26;99435.28;;;16.95;60.38
41140;BME280;26881;48.784;9.192;2022-07-17T04:39:47;99429.38;;;16.92;60.36
41140;BME280;26881;48.784;9.192;2022-07-17T04:45:09;99436.78;;;16.99;60.47
41140;BME280;26881;48.784;9.192;2022-07-17T04:50:31;99436.22;;;17.07;60.40
41140;BME280;26881;48.784;9.192;2022-07-17T04:55:54;99433.50;;;17.20;59.28
41140;BME280;26881;48.784;9.192;2022-07-17T05:01:16;99447.34;;;17.23;60.04
41140;BME280;26881;48.784;9.192;2022-07-17T05:06:38;99443.00;;;17.22;60.17
41140;BME280;26881;48.784;9.192;2022-07-17T05:12:00;99445.06;;;17.19;59.58
41140;BME280;26881;48.784;9.192;2022-07-17T05:17:21;99439.31;;;17.25;59.29
41140;BME280;26881;48.784;9.192;2022-07-17T05:22:43;99443.97;;;17.21;58.87
41140;BME280;26881;48.784;9.192;2022-07-17T05:28:05;99439.75;;;17.19;59.81
41140;BME280;26881;48.784;9.192;2022-07-17T05:33:27;99447.03;;;17.28;59.27
41140;BME280;26881;48.784;9.192;2022-07-17T05:38:49;99449.09;;;17.36;59.66
41140;BME280;26881;48.784;9.192;2022-07-17T05:44:10;99442.81;;;17.49;59.52
41140;BME280;26881;48.784;9.192;2022-07-17T05:49:32;99439.66;;;17.44;58.28
41140;BME280;26881;48.784;9.192;2022-07-17T05:54:54;99445.38;;;17.38;59.64
41140;BME280;26881;48.784;9.192;2022-07-17T06:00:16;99453.38;;;17.49;59.60
41140;BME280;26881;48.784;9.192;2022-07-17T06:05:38;99446.06;;;17.53;58.52
41140;BME280;26881;48.784;9.192;2022-07-17T06:11:00;99463.94;;;17.74;57.94
41140;BME280;26881;48.784;9.192;2022-07-17T06:16:22;99456.97;;;17.73;57.35
41140;BME280;26881;48.784;9.192;2022-07-17T06:21:43;99452.66;;;17.72;57.81
41140;BME280;26881;48.784;9.192;2022-07-17T06:27:05;99457.94;;;17.96;56.69
41140;BME280;26881;48.784;9.192;2022-07-17T06:32:28;99452.28;;;18.00;56.94
41140;BME280;26881;48.784;9.192;2022-07-17T06:37:50;99464.19;;;18.06;55.84
41140;BME280;26881;48.784;9.192;2022-07-17T06:43:12;99458.69;;;18.20;54.81
41140;BME280;26881;48.784;9.192;2022-07-17T06:48:34;99459.78;;;18.29;54.83
41140;BME280;26881;48.784;9.192;2022-07-17T06:53:56;99465.75;;;18.44;54.06
41140;BME280;26881;48.784;9.192;2022-07-17T06:59:18;99477.75;;;18.48;54.74
41140;BME280;26881;48.784;9.192;2022-07-17T07:04:40;99474.91;;;18.51;53.87
41140;BME280;26881;48.784;9.192;2022-07-17T07:10:02;99478.50;;;18.72;51.82
41140;BME280;26881;48.784;9.192;2022-07-17T07:15:24;99471.06;;;18.89;50.59
41140;BME280;26881;48.784;9.192;2022-07-17T07:20:46;99477.81;;;18.93;50.80
41140;BME280;26881;48.784;9.192;2022-07-17T07:26:08;99470.09;;;19.01;49.78
41140;BME280;26881;48.784;9.192;2022-07-17T07:31:30;99469.97;;;19.14;48.49
41140;BME280;26881;48.784;9.192;2022-07-17T07:36:53;99478.25;;;19.21;49.38
41140;BME280;26881;48.784;9.192;2022-07-17T07:42:14;99468.13;;;19.37;48.51
41140;BME280;26881;48.784;9.192;2022-07-17T07:47:43;99463.09;;;19.55;48.33
41140;BME280;26881;48.784;9.192;2022-07-17T07:53:05;99463.22;;;19.86;47.27
41140;BME280;26881;48.784;9.192;2022-07-17T07:58:27;99469.22;;;20.20;47.16
41140;BME280;26881;48.784;9.192;2022-07-17T08:03:49;99469.19;;;20.62;45.08
41140;BME280;26881;48.784;9.192;2022-07-17T08:09:11;99465.34;;;20.76;44.01
41140;BME280;26881;48.784;9.192;2022-07-17T08:14:33;99468.81;;;20.67;43.98
41140;BME280;26881;48.784;9.192;2022-07-17T08:19:55;99474.78;;;20.59;44.95
41140;BME280;26881;48.784;9.192;2022-07-17T08:25:17;99474.44;;;20.52;45.39
41140;BME280;26881;48.784;9.192;2022-07-17T08:30:39;99466.34;;;20.54;44.87
41140;BME280;26881;48.784;9.192;2022-07-17T08:36:01;99473.56;;;20.63;44.74
41140;BME280;26881;48.784;9.192;2022-07-17T08:41:24;99461.13;;;20.73;43.85
41140;BME280;26881;48.784;9.192;2022-07-17T08:46:47;99460.16;;;20.74;43.87
41140;BME280;26881;48.784;9.192;2022-07-17T08:52:10;99458.63;;;20.81;44.22
41140;BME280;26881;48.784;9.192;2022-07-17T08:57:32;99466.00;;;20.99;43.63
41140;BME280;26881;48.784;9.192;2022-07-17T09:03:03;99464.06;;;21.11;42.97
41140;BME280;26881;48.784;9.192;2022-07-17T09:08:25;99458.34;;;21.25;43.25
41140;BME280;26881;48.784;9.192;2022-07-17T09:13:47;99456.69;;;21.34;42.66
41140;BME280;26881;48.784;9.192;2022-07-17T09:19:09;99454.06;;;21.43;42.53
41140;BME280;26881;48.784;9.192;2022-07-17T09:24:46;99452.81;;;21.57;42.31
41140;BME280;26881;48.784;9.192;2022-07-17T09:30:10;99449.19;;;21.68;41.32
41140;BME280;26881;48.784;9.192;2022-07-17T09:35:33;99453.09;;;21.83;40.40
41140;BME280;26881;48.784;9.192;2022-07-17T09:46:34;99437.25;;;22.01;39.06
41140;BME280;26881;48.784;9.192;2022-07-17T09:52:00;99438.78;;;22.04;38.48
41140;BME280;26881;48.784;9.192;2022-07-17T09:57:29;99438.34;;;22.08;37.79
41140;BME280;26881;48.784;9.192;2022-07-17T10:02:51;99437.09;;;22.13;38.06
41140;BME280;26881;48.784;9.192;2022-07-17T10:08:14;99442.13;;;22.25;36.59
41140;BME280;26881;48.784;9.192;2022-07-17T10:13:39;99431.00;;;22.40;35.24
41140;BME280;26881;48.784;9.192;2022-07-17T10:19:01;99432.13;;;22.37;36.52
41140;BME280;26881;48.784;9.192;2022-07-17T10:24:25;99422.56;;;22.44;35.82
41140;BME280;26881;48.784;9.192;2022-07-17T10:30:08;99430.50;;;22.64;35.62
41140;BME280;26881;48.784;9.192;2022-07-17T10:35:48;99422.22;;;22.67;35.82
41140;BME280;26881;48.784;9.192;2022-07-17T10:41:19;99410.31;;;22.61;35.86
41140;BME280;26881;48.784;9.192;2022-07-17T10:46:44;99401.28;;;22.72;35.08
41140;BME280;26881;48.784;9.192;2022-07-17T10:52:05;99402.84;;;22.92;35.25
41140;BME280;26881;48.784;9.192;2022-07-17T10:57:28;99403.06;;;23.09;35.10
41140;BME280;26881;48.784;9.192;2022-07-17T11:02:49;99397.88;;;23.07;34.91
41140;BME280;26881;48.784;9.192;2022-07-17T11:08:11;99395.81;;;23.19;33.85
41140;BME280;26881;48.784;9.192;2022-07-17T11:13:35;99394.53;;;23.23;34.35
41140;BME280;26881;48.784;9.192;2022-07-17T11:18:57;99388.75;;;23.28;34.09
41140;BME280;26881;48.784;9.192;2022-07-17T11:24:20;99385.75;;;23.49;33.17
41140;BME280;26881;48.784;9.192;2022-07-17T11:29:42;99372.25;;;23.68;33.45
41140;BME280;26881;48.784;9.192;2022-07-17T11:35:19;99368.81;;;23.94;31.25
41140;BME280;26881;48.784;9.192;2022-07-17T11:41:01;99369.31;;;23.97;30.97
41140;BME280;26881;48.784;9.192;2022-07-17T11:46:23;99373.25;;;24.11;30.82
41140;BME280;26881;48.784;9.192;2022-07-17T11:51:45;99372.28;;;24.21;31.64
41140;BME280;26881;48.784;9.192;2022-07-17T11:57:07;99362.00;;;24.34;31.45
41140;BME280;26881;48.784;9.192;2022-07-17T12:02:30;99356.59;;;24.52;31.70
41140;BME280;26881;48.784;9.192;2022-07-17T12:07:53;99352.47;;;24.66;31.50
41140;BME280;26881;48.784;9.192;2022-07-17T12:13:15;99355.84;;;24.76;31.38
41140;BME280;26881;48.784;9.192;2022-07-17T12:18:37;99352.50;;;24.82;30.15
41140;BME280;26881;48.784;9.192;2022-07-17T12:24:02;99352.22;;;24.85;30.13
41140;BME280;26881;48.784;9.192;2022-07-17T12:29:25;99356.69;;;24.85;30.65
41140;BME280;26881;48.784;9.192;2022-07-17T12:34:48;99357.22;;;24.88;29.65
41140;BME280;26881;48.784;9.192;2022-07-17T12:40:10;99349.03;;;24.98;30.16
41140;BME280;26881;48.784;9.192;2022-07-17T12:45:36;99344.56;;;25.07;30.16
41140;BME280;26881;48.784;9.192;2022-07-17T12:50:58;99344.56;;;25.07;30.17
41140;BME280;26881;48.784;9.192;2022-07-17T12:56:20;99335.66;;;24.98;30.39
41140;BME280;26881;48.784;9.192;2022-07-17T13:01:43;99341.53;;;25.10;29.04
41140;BME280;26881;48.784;9.192;2022-07-17T13:07:07;99341.88;;;25.15;30.29
41140;BME280;26881;48.784;9.192;2022-07-17T13:12:29;99348.13;;;25.32;28.63
41140;BME280;26881;48.784;9.192;2022-07-17T13:17:51;99348.13;;;25.32;28.78
41140;BME280;26881;48.784;9.192;2022-07-17T13:23:13;99349.31;;;25.46;26.64
41140;BME280;26881;48.784;9.192;2022-07-17T13:28:34;99339.75;;;25.35;26.81
41140;BME280;26881;48.784;9.192;2022-07-17T13:33:59;99334.72;;;25.40;26.08
41140;BME280;26881;48.784;9.192;2022-07-17T13:39:20;99339.75;;;25.59;24.35
41140;BME280;26881;48.784;9.192;2022-07-17T13:44:43;99324.16;;;25.79;24.18
41140;BME280;26881;48.784;9.192;2022-07-17T13:50:05;99329.69;;;25.94;23.78
41140;BME280;26881;48.784;9.192;2022-07-17T13:55:34;99329.00;;;25.84;24.24
41140;BME280;26881;48.784;9.192;2022-07-17T14:01:05;99330.53;;;25.95;24.41
41140;BME280;26881;48.784;9.192;2022-07-17T14:06:27;99317.13;;;25.95;24.82
41140;BME280;26881;48.784;9.192;2022-07-17T14:11:49;99317.47;;;25.83;24.87
41140;BME280;26881;48.784;9.192;2022-07-17T14:17:11;99306.88;;;26.06;23.60
41140;BME280;26881;48.784;9.192;2022-07-17T14:22:33;99310.69;;;26.20;23.56
41140;BME280;26881;48.784;9.192;2022-07-17T14:27:55;99307.34;;;26.10;23.68
41140;BME280;26881;48.784;9.192;2022-07-17T14:33:17;99309.19;;;26.18;23.49
41140;BME280;26881;48.784;9.192;2022-07-17T14:38:38;99295.59;;;26.19;23.40
41140;BME280;26881;48.784;9.192;2022-07-17T14:44:01;99300.66;;;26.14;23.75
41140;BME280;26881;48.784;9.192;2022-07-17T14:49:23;99287.47;;;26.36;22.74
41140;BME280;26881;48.784;9.192;2022-07-17T14:54:45;99294.88;;;26.34;23.19
41140;BME280;26881;48.784;9.192;2022-07-17T15:00:08;99294.47;;;26.14;23.50
41140;BME280;26881;48.784;9.192;2022-07-17T15:05:30;99287.56;;;26.19;23.62
41140;BME280;26881;48.784;9.192;2022-07-17T15:10:59;99284.13;;;26.34;25.01
41140;BME280;26881;48.784;9.192;2022-07-17T15:16:23;99285.53;;;26.30;24.83
41140;BME280;26881;48.784;9.192;2022-07-17T15:21:45;99281.88;;;26.22;25.79
41140;BME280;26881;48.784;9.192;2022-07-17T15:27:13;99267.28;;;26.25;25.34
41140;BME280;26881;48.784;9.192;2022-07-17T15:32:35;99258.06;;;26.19;25.84
41140;BME280;26881;48.784;9.192;2022-07-17T15:37:57;99252.38;;;26.14;25.91
41140;BME280;26881;48.784;9.192;2022-07-17T15:43:19;99264.31;;;26.12;25.44
41140;BME280;26881;48.784;9.192;2022-07-17T15:48:41;99266.75;;;26.30;25.70
41140;BME280;26881;48.784;9.192;2022-07-17T15:54:04;99256.31;;;26.35;25.27
41140;BME280;26881;48.784;9.192;2022-07-17T15:59:27;99254.22;;;26.53;25.25
41140;BME280;26881;48.784;9.192;2022-07-17T16:04:49;99253.22;;;26.54;25.44
41140;BME280;26881;48.784;9.192;2022-07-17T16:10:10;99248.88;;;26.45;25.07
41140;BME280;26881;48.784;9.192;2022-07-17T16:15:33;99254.59;;;26.42;24.74
41140;BME280;26881;48.784;9.192;2022-07-17T16:21:02;99253.97;;;26.32;25.27
41140;BME280;26881;48.784;9.192;2022-07-17T16:26:23;99249.63;;;26.31;25.52
41140;BME280;26881;48.784;9.192;2022-07-17T16:31:46;99232.13;;;26.12;26.21
41140;BME280;26881;48.784;9.192;2022-07-17T16:37:08;99234.31;;;26.08;26.80
41140;BME280;26881;48.784;9.192;2022-07-17T16:42:30;99225.84;;;26.27;26.03
41140;BME280;26881;48.784;9.192;2022-07-17T16:47:52;99223.31;;;26.34;26.22
41140;BME280;26881;48.784;9.192;2022-07-17T16:53:14;99225.34;;;26.24;26.24
41140;BME280;26881;48.784;9.192;2022-07-17T16:58:36;99224.38;;;26.17;25.96
41140;BME280;26881;48.784;9.192;2022-07-17T17:03:58;99218.19;;;26.16;26.33
41140;BME280;26881;48.784;9.192;2022-07-17T17:09:20;99209.84;;;26.11;26.65
41140;BME280;26881;48.784;9.192;2022-07-17T17:14:42;99205.75;;;26.23;26.12
41140;BME280;26881;48.784;9.192;2022-07-17T17:20:05;99201.75;;;26.19;26.13
41140;BME280;26881;48.784;9.192;2022-07-17T17:25:28;99193.38;;;26.22;26.12
41140;BME280;26881;48.784;9.192;2022-07-17T17:30:50;99199.72;;;26.30;25.61
41140;BME280;26881;48.784;9.192;2022-07-17T17:36:12;99190.34;;;26.25;25.89
41140;BME280;26881;48.784;9.192;2022-07-17T17:41:34;99192.09;;;26.10;26.22
41140;BME280;26881;48.784;9.192;2022-07-17T17:46:56;99190.03;;;26.20;25.22
41140;BME280;26881;48.784;9.192;2022-07-17T17:52:18;99186.72;;;26.10;25.87
41140;BME280;26881;48.784;9.192;2022-07-17T17:57:40;99195.44;;;26.12;25.46
41140;BME280;26881;48.784;9.192;2022-07-17T18:03:02;99200.94;;;26.11;25.77
41140;BME280;26881;48.784;9.192;2022-07-17T18:08:24;99202.34;;;26.06;25.77
41140;BME280;26881;48.784;9.192;2022-07-17T18:13:46;99203.53;;;26.04;25.55
41140;BME280;26881;48.784;9.192;2022-07-17T18:19:08;99217.91;;;26.03;25.38
41140;BME280;26881;48.784;9.192;2022-07-17T18:24:30;99213.44;;;25.87;26.08
41140;BME280;26881;48.784;9.192;2022-07-17T18:29:52;99212.28;;;25.90;25.70
41140;BME280;26881;48.784;9.192;2022-07-17T18:35:14;99212.47;;;25.88;25.63
41140;BME280;26881;48.784;9.192;2022-07-17T18:40:37;99219.97;;;25.84;25.32
41140;BME280;26881;48.784;9.192;2022-07-17T18:45:59;99220.16;;;25.75;25.36
41140;BME280;26881;48.784;9.192;2022-07-17T18:51:21;99231.25;;;25.72;25.35
41140;BME280;26881;48.784;9.192;2022-07-17T18:56:43;99229.41;;;25.64;25.37
41140;BME280;26881;48.784;9.192;2022-07-17T19:02:06;99238.13;;;25.58;25.49
41140;BME280;26881;48.784;9.192;2022-07-17T19:07:29;99242.31;;;25.52;25.12
41140;BME280;26881;48.784;9.192;2022-07-17T19:12:50;99244.88;;;25.46;25.19
41140;BME280;26881;48.784;9.192;2022-07-17T19:18:12;99247.22;;;25.32;25.72
41140;BME280;26881;48.784;9.192;2022-07-17T19:23:34;99252.75;;;25.22;25.92
41140;BME280;26881;48.784;9.192;2022-07-17T19:28:56;99255.88;;;25.10;26.47
41140;BME280;26881;48.784;9.192;2022-07-17T19:34:18;99255.53;;;24.88;27.67
41140;BME280;26881;48.784;9.192;2022-07-17T19:39:40;99264.19;;;24.66;28.68
41140;BME280;26881;48.784;9.192;2022-07-17T19:45:04;99275.88;;;24.56;28.56
41140;BME280;26881;48.784;9.192;2022-07-17T19:50:26;99275.31;;;24.45;28.88
41140;BME280;26881;48.784;9.192;2022-07-17T19:55:48;99277.63;;;24.31;28.56
41140;BME280;26881;48.784;9.192;2022-07-17T20:01:29;99290.13;;;24.23;29.35
41140;BME280;26881;48.784;9.192;2022-07-17T20:06:50;99274.88;;;24.15;29.31
41140;BME280;26881;48.784;9.192;2022-07-17T20:12:12;99286.63;;;23.96;30.30
41140;BME280;26881;48.784;9.192;2022-07-17T20:17:35;99294.41;;;23.81;30.73
41140;BME280;26881;48.784;9.192;2022-07-17T20:22:57;99287.16;;;23.73;30.97
41140;BME280;26881;48.784;9.192;2022-07-17T20:28:20;99292.59;;;23.64;31.36
41140;BME280;26881;48.784;9.192;2022-07-17T20:33:42;99287.50;;;23.52;31.75
41140;BME280;26881;48.784;9.192;2022-07-17T20:39:04;99286.63;;;23.44;32.24
41140;BME280;26881;48.784;9.192;2022-07-17T20:44:26;99287.53;;;23.34;33.05
41140;BME280;26881;48.784;9.192;2022-07-17T20:49:47;99290.13;;;23.26;32.56
41140;BME280;26881;48.784;9.192;2022-07-17T20:55:09;99294.41;;;23.19;32.38
41140;BME280;26881;48.784;9.192;2022-07-17T21:00:31;99297.16;;;23.09;32.42
41140;BME280;26881;48.784;9.192;2022-07-17T21:05:56;99290.25;;;22.99;32.79
41140;BME280;26881;48.784;9.192;2022-07-17T21:11:18;99302.25;;;22.85;33.10
41140;BME280;26881;48.784;9.192;2022-07-17T21:16:40;99301.47;;;22.75;33.41
41140;BME280;26881;48.784;9.192;2022-07-17T21:22:02;99297.88;;;22.66;33.50
41140;BME280;26881;48.784;9.192;2022-07-17T21:27:25;99308.44;;;22.58;33.59
41140;BME280;26881;48.784;9.192;2022-07-17T21:32:47;99314.53;;;22.50;33.58
41140;BME280;26881;48.784;9.192;2022-07-17T21:38:09;99324.94;;;22.43;33.69
41140;BME280;26881;48.784;9.192;2022-07-17T21:43:32;99329.19;;;22.36;34.15
41140;BME280;26881;48.784;9.192;2022-07-17T21:48:54;99325.88;;;22.24;34.31
41140;BME280;26881;48.784;9.192;2022-07-17T21:54:16;99325.88;;;22.24;34.59
41140;BME280;26881;48.784;9.192;2022-07-17T21:59:38;99334.56;;;22.17;34.22
41140;BME280;26881;48.784;9.192;2022-07-17T22:05:00;99339.09;;;22.06;34.26
41140;BME280;26881;48.784;9.192;2022-07-17T22:10:22;99346.69;;;22.01;34.40
41140;BME280;26881;48.784;9.192;2022-07-17T22:15:43;99340.78;;;21.98;35.03
41140;BME280;26881;48.784;9.192;2022-07-17T22:21:05;99348.81;;;21.88;35.98
41140;BME280;26881;48.784;9.192;2022-07-17T22:26:31;99344.91;;;21.82;36.36
41140;BME280;26881;48.784;9.192;2022-07-17T22:31:54;99345.34;;;21.78;36.44
41140;BME280;26881;48.784;9.192;2022-07-17T22:37:16;99349.28;;;21.64;36.47
41140;BME280;26881;48.784;9.192;2022-07-17T22:42:38;99342.44;;;21.61;36.32
41140;BME280;26881;48.784;9.192;2022-07-17T22:47:59;99340.47;;;21.63;35.82
41140;BME280;26881;48.784;9.192;2022-07-17T22:53:21;99342.69;;;21.58;35.81
41140;BME280;26881;48.784;9.192;2022-07-17T22:58:43;99336.13;;;21.53;35.50
41140;BME280;26881;48.784;9.192;2022-07-17T23:04:05;99329.13;;;21.52;34.93
41140;BME280;26881;48.784;9.192;2022-07-17T23:09:29;99332.34;;;21.55;34.29
41140;BME280;26881;48.784;9.192;2022-07-17T23:14:50;99338.66;;;21.54;34.74
41140;BME280;26881;48.784;9.192;2022-07-17T23:20:12;99332.06;;;21.49;34.91
41140;BME280;26881;48.784;9.192;2022-07-17T23:25:34;99333.59;;;21.41;35.20
41140;BME280;26881;48.784;9.192;2022-07-17T23:30:56;99327.69;;;21.28;36.19
41140;BME280;26881;48.784;9.192;2022-07-17T23:36:18;99328.81;;;21.25;36.87
41140;BME280;26881;48.784;9.192;2022-07-17T23:41:40;99336.69;;;21.17;37.58
41140;BME280;26881;48.784;9.192;2022-07-17T23:47:03;99336.25;;;21.12;38.03
41140;BME280;26881;48.784;9.192;2022-07-17T23:52:25;99337.94;;;21.03;38.84
41140;BME280;26881;48.784;9.192;2022-07-17T23:57:47;99334.84;;;20.89;39.41
